createdAt,value
2018-05-27T00:00:49.905Z,28.30
2018-05-27T00:03:18.124Z,28.30
2018-05-27T00:05:46.341Z,28.30
2018-05-27T00:08:13.795Z,28.30
2018-05-27T00:10:41.264Z,28.20
2018-05-27T00:13:08.721Z,28.20
2018-05-27T00:15:36.179Z,28.10
2018-05-27T00:18:03.641Z,28.10
2018-05-27T00:20:31.084Z,28.00
2018-05-27T00:22:58.553Z,28.00
2018-05-27T00:25:26.008Z,28.00
2018-05-27T00:27:53.469Z,27.90
2018-05-27T00:30:20.933Z,27.90
2018-05-27T00:32:49.144Z,27.80
2018-05-27T00:35:16.609Z,27.80
2018-05-27T00:37:44.824Z,27.80
2018-05-27T00:40:12.292Z,27.70
2018-05-27T00:42:39.746Z,27.70
2018-05-27T00:45:07.205Z,27.80
2018-05-27T00:47:34.660Z,27.80
2018-05-27T00:50:02.888Z,27.70
2018-05-27T00:52:31.112Z,27.60
2018-05-27T00:54:58.559Z,27.60
2018-05-27T00:57:26.027Z,27.60
2018-05-27T00:59:53.476Z,27.60
2018-05-27T01:02:20.932Z,27.60
2018-05-27T01:04:48.400Z,27.50
2018-05-27T01:07:15.844Z,27.40
2018-05-27T01:09:43.328Z,27.50
2018-05-27T01:12:10.776Z,27.40
2018-05-27T01:14:38.254Z,27.40
2018-05-27T01:17:05.714Z,27.30
2018-05-27T01:19:33.163Z,27.40
2018-05-27T01:22:00.624Z,27.30
2018-05-27T01:24:28.080Z,27.30
2018-05-27T01:26:55.536Z,27.20
2018-05-27T01:29:22.996Z,27.20
2018-05-27T01:31:51.211Z,27.20
2018-05-27T01:34:18.668Z,27.10
2018-05-27T01:36:46.128Z,27.10
2018-05-27T01:39:13.576Z,27.10
2018-05-27T01:41:41.800Z,26.90
2018-05-27T01:44:09.256Z,26.90
2018-05-27T01:46:36.713Z,26.90
2018-05-27T01:49:04.932Z,26.80
2018-05-27T01:51:33.165Z,26.80
2018-05-27T01:54:00.620Z,26.80
2018-05-27T01:56:28.075Z,26.80
2018-05-27T01:58:55.537Z,26.70
2018-05-27T02:01:22.998Z,26.70
2018-05-27T02:03:50.453Z,26.60
2018-05-27T02:06:17.915Z,26.60
2018-05-27T02:08:45.357Z,26.70
2018-05-27T02:11:12.823Z,26.70
2018-05-27T02:13:40.279Z,26.50
2018-05-27T02:16:07.736Z,26.60
2018-05-27T02:18:35.183Z,26.50
2018-05-27T02:21:02.652Z,26.40
2018-05-27T02:23:30.109Z,26.30
2018-05-27T02:25:57.568Z,26.30
2018-05-27T02:28:25.024Z,26.20
2018-05-27T02:30:53.257Z,26.20
2018-05-27T02:33:21.476Z,26.20
2018-05-27T02:35:48.919Z,26.20
2018-05-27T02:38:16.383Z,26.10
2018-05-27T02:40:43.848Z,26.10
2018-05-27T02:43:11.309Z,26.00
2018-05-27T02:45:39.538Z,26.00
2018-05-27T02:48:07.747Z,26.00
2018-05-27T02:50:35.221Z,25.90
2018-05-27T02:53:02.672Z,25.90
2018-05-27T02:55:30.133Z,25.90
2018-05-27T02:57:57.589Z,25.80
2018-05-27T03:00:25.054Z,25.80
2018-05-27T03:02:52.502Z,25.80
2018-05-27T03:05:19.964Z,25.70
2018-05-27T03:07:47.404Z,25.70
2018-05-27T03:10:15.645Z,25.70
2018-05-27T03:12:43.098Z,25.70
2018-05-27T03:15:11.332Z,25.70
2018-05-27T03:17:38.781Z,25.70
2018-05-27T03:20:06.228Z,25.60
2018-05-27T03:22:34.230Z,25.60
2018-05-27T03:25:01.717Z,25.50
2018-05-27T03:27:29.943Z,25.40
2018-05-27T03:29:57.389Z,25.40
2018-05-27T03:32:24.863Z,25.30
2018-05-27T03:34:52.317Z,25.30
2018-05-27T03:37:19.781Z,25.30
2018-05-27T03:39:47.233Z,25.20
2018-05-27T03:42:14.696Z,25.20
2018-05-27T03:44:42.913Z,25.10
2018-05-27T03:47:11.137Z,25.20
2018-05-27T03:49:38.583Z,25.10
2018-05-27T03:52:06.046Z,25.10
2018-05-27T03:54:33.496Z,24.90
2018-05-27T03:57:01.738Z,25.00
2018-05-27T03:59:29.200Z,25.00
2018-05-27T04:01:57.427Z,24.90
2018-05-27T04:04:36.745Z,24.90
2018-05-27T04:07:16.993Z,25.00
2018-05-27T04:09:44.431Z,24.80
2018-05-27T04:12:11.892Z,24.90
2018-05-27T04:14:40.164Z,24.90
2018-05-27T04:17:07.612Z,24.80
2018-05-27T04:19:35.074Z,24.80
2018-05-27T04:22:03.308Z,24.80
2018-05-27T04:24:30.756Z,24.80
2018-05-27T04:26:58.226Z,24.90
2018-05-27T04:29:25.664Z,24.80
2018-05-27T04:31:53.126Z,24.80
2018-05-27T04:34:20.567Z,24.80
2018-05-27T04:36:48.035Z,24.80
2018-05-27T04:39:15.484Z,24.80
2018-05-27T04:41:43.730Z,24.80
2018-05-27T04:44:11.937Z,24.80
2018-05-27T04:46:39.394Z,24.80
2018-05-27T04:49:06.849Z,24.80
2018-05-27T04:51:34.310Z,24.80
2018-05-27T04:54:01.780Z,24.90
2018-05-27T04:56:29.231Z,24.90
2018-05-27T04:58:56.690Z,24.90
2018-05-27T05:01:24.138Z,24.90
2018-05-27T05:03:51.601Z,24.80
2018-05-27T05:06:19.053Z,24.80
2018-05-27T05:08:46.516Z,24.80
2018-05-27T05:11:13.977Z,24.80
2018-05-27T05:13:41.438Z,24.90
2018-05-27T05:16:08.896Z,24.80
2018-05-27T05:18:36.353Z,24.80
2018-05-27T05:21:03.804Z,24.90
2018-05-27T05:23:31.250Z,24.90
2018-05-27T05:25:58.708Z,24.90
2018-05-27T05:28:26.171Z,24.90
2018-05-27T05:30:53.641Z,25.00
2018-05-27T05:33:21.868Z,24.90
2018-05-27T05:35:50.076Z,24.90
2018-05-27T05:38:17.544Z,24.80
2018-05-27T05:40:44.992Z,25.00
2018-05-27T05:43:12.449Z,24.90
2018-05-27T05:45:39.912Z,25.00
2018-05-27T05:48:07.375Z,25.00
2018-05-27T05:50:35.593Z,25.00
2018-05-27T05:53:03.056Z,24.90
2018-05-27T05:55:31.282Z,25.00
2018-05-27T05:57:58.741Z,25.00
2018-05-27T06:00:26.191Z,25.00
2018-05-27T06:02:53.658Z,25.10
2018-05-27T06:05:21.113Z,25.10
2018-05-27T06:07:48.569Z,25.00
2018-05-27T06:10:16.012Z,25.00
2018-05-27T06:12:43.485Z,25.10
2018-05-27T06:15:11.728Z,25.10
2018-05-27T06:17:39.945Z,25.20
2018-05-27T06:20:07.397Z,25.10
2018-05-27T06:22:34.848Z,25.20
2018-05-27T06:25:03.080Z,25.30
2018-05-27T06:27:31.313Z,25.40
2018-05-27T06:29:58.807Z,25.40
2018-05-27T06:32:26.267Z,25.50
2018-05-27T06:34:54.491Z,25.50
2018-05-27T06:37:21.950Z,25.50
2018-05-27T06:39:50.189Z,25.60
2018-05-27T06:42:17.637Z,25.60
2018-05-27T06:44:45.856Z,25.80
2018-05-27T06:47:13.332Z,25.80
2018-05-27T06:49:40.780Z,25.80
2018-05-27T06:52:08.244Z,26.00
2018-05-27T06:54:35.720Z,26.10
2018-05-27T06:57:03.173Z,26.20
2018-05-27T06:59:30.628Z,26.30
2018-05-27T07:01:58.852Z,26.40
2018-05-27T07:04:27.136Z,26.60
2018-05-27T07:06:54.532Z,26.60
2018-05-27T07:09:22.004Z,26.80
2018-05-27T07:11:49.459Z,27.00
2018-05-27T07:14:16.930Z,27.10
2018-05-27T07:16:44.389Z,27.30
2018-05-27T07:19:11.852Z,27.50
2018-05-27T07:21:39.309Z,27.60
2018-05-27T07:24:06.769Z,27.90
2018-05-27T07:26:34.220Z,28.00
2018-05-27T07:29:01.680Z,28.10
2018-05-27T07:31:29.120Z,28.30
2018-05-27T07:33:56.586Z,28.50
2018-05-27T07:36:24.029Z,28.60
2018-05-27T07:38:51.488Z,28.70
2018-05-27T07:41:18.932Z,28.80
2018-05-27T07:43:46.387Z,29.00
2018-05-27T07:46:14.627Z,29.20
2018-05-27T07:48:42.075Z,29.30
2018-05-27T07:51:10.301Z,29.50
2018-05-27T07:53:37.762Z,29.50
2018-05-27T07:56:05.204Z,29.70
2018-05-27T07:58:32.715Z,29.90
2018-05-27T08:01:00.115Z,30.00
2018-05-27T08:03:27.585Z,30.10
2018-05-27T08:05:55.041Z,30.20
2018-05-27T08:08:22.495Z,30.30
2018-05-27T08:10:49.956Z,30.30
2018-05-27T08:13:17.413Z,30.50
2018-05-27T08:15:44.865Z,30.60
2018-05-27T08:18:12.325Z,30.90
2018-05-27T08:20:39.777Z,31.00
2018-05-27T08:23:07.232Z,31.10
2018-05-27T08:25:34.684Z,31.20
2018-05-27T08:28:02.141Z,31.40
2018-05-27T08:30:29.605Z,31.50
2018-05-27T08:32:57.054Z,31.60
2018-05-27T08:35:24.511Z,31.70
2018-05-27T08:37:51.976Z,31.90
2018-05-27T08:40:19.438Z,32.10
2018-05-27T08:42:46.884Z,32.30
2018-05-27T08:45:14.350Z,32.30
2018-05-27T08:47:41.808Z,32.40
2018-05-27T08:50:09.269Z,32.80
2018-05-27T08:52:36.724Z,32.80
2018-05-27T08:55:04.183Z,32.80
2018-05-27T08:57:31.644Z,33.00
2018-05-27T08:59:59.091Z,33.30
2018-05-27T09:02:26.544Z,33.40
2018-05-27T09:04:54.004Z,33.60
2018-05-27T09:07:21.458Z,33.70
2018-05-27T09:09:48.916Z,33.80
2018-05-27T09:12:16.361Z,34.00
2018-05-27T09:14:43.808Z,34.00
2018-05-27T09:17:11.259Z,34.30
2018-05-27T09:19:39.493Z,34.60
2018-05-27T09:22:06.940Z,34.60
2018-05-27T09:24:34.403Z,34.80
2018-05-27T09:27:01.864Z,35.00
2018-05-27T09:29:29.320Z,35.20
2018-05-27T09:31:56.768Z,35.40
2018-05-27T09:34:24.271Z,35.50
2018-05-27T09:36:51.717Z,35.70
2018-05-27T09:39:19.207Z,35.80
2018-05-27T09:41:46.645Z,36.00
2018-05-27T09:44:14.863Z,36.30
2018-05-27T09:46:42.315Z,36.30
2018-05-27T09:49:09.771Z,36.50
2018-05-27T09:51:37.209Z,36.60
2018-05-27T09:54:04.672Z,36.80
2018-05-27T09:56:32.134Z,36.90
2018-05-27T09:58:59.607Z,37.10
2018-05-27T10:01:27.053Z,37.30
2018-05-27T10:03:54.512Z,37.50
2018-05-27T10:06:21.995Z,37.70
2018-05-27T10:08:49.448Z,37.70
2018-05-27T10:11:16.912Z,37.90
2018-05-27T10:13:44.351Z,38.10
2018-05-27T10:16:11.807Z,38.30
2018-05-27T10:18:39.261Z,38.50
2018-05-27T10:21:06.704Z,38.60
2018-05-27T10:23:34.165Z,38.80
2018-05-27T10:26:01.694Z,38.90
2018-05-27T10:28:29.088Z,39.20
2018-05-27T10:30:56.557Z,39.30
2018-05-27T10:33:24.021Z,39.50
2018-05-27T10:35:51.477Z,39.70
2018-05-27T10:38:18.923Z,39.80
2018-05-27T10:40:46.381Z,40.10
2018-05-27T10:43:13.844Z,40.10
2018-05-27T10:45:41.296Z,40.30
2018-05-27T10:48:08.751Z,40.50
2018-05-27T10:50:36.192Z,40.70
2018-05-27T10:53:03.659Z,40.80
2018-05-27T10:55:31.109Z,40.90
2018-05-27T10:57:58.571Z,41.10
2018-05-27T11:00:26.032Z,41.30
2018-05-27T11:02:53.481Z,41.40
2018-05-27T11:05:20.940Z,41.50
2018-05-27T11:07:48.397Z,41.60
2018-05-27T11:10:15.866Z,41.70
2018-05-27T11:12:43.330Z,41.90
2018-05-27T11:15:10.787Z,41.80
2018-05-27T11:17:38.223Z,42.00
2018-05-27T11:20:05.688Z,42.00
2018-05-27T11:22:33.127Z,42.20
2018-05-27T11:25:01.362Z,43.80
2018-05-27T11:27:28.799Z,43.80
2018-05-27T11:29:56.300Z,45.60
2018-05-27T11:32:23.711Z,47.30
2018-05-27T11:34:51.165Z,49.20
2018-05-27T11:37:18.616Z,50.50
2018-05-27T11:39:46.082Z,52.00
2018-05-27T11:42:13.529Z,53.40
2018-05-27T11:44:40.976Z,54.50
2018-05-27T11:47:08.432Z,55.50
2018-05-27T11:49:35.899Z,56.20
2018-05-27T11:52:03.357Z,56.60
2018-05-27T11:54:30.814Z,57.20
2018-05-27T11:56:58.280Z,57.80
2018-05-27T11:59:25.740Z,58.40
2018-05-27T12:01:53.205Z,58.70
2018-05-27T12:04:20.657Z,59.10
2018-05-27T12:06:48.112Z,59.70
2018-05-27T12:09:15.643Z,59.90
2018-05-27T12:11:43.055Z,60.40
2018-05-27T12:14:10.489Z,60.60
2018-05-27T12:16:37.944Z,60.80
2018-05-27T12:19:05.391Z,60.80
2018-05-27T12:21:32.840Z,60.90
2018-05-27T12:24:00.305Z,61.70
2018-05-27T12:26:27.747Z,61.80
2018-05-27T12:28:55.225Z,61.90
2018-05-27T12:31:22.667Z,62.10
2018-05-27T12:33:50.107Z,62.00
2018-05-27T12:36:18.336Z,61.70
2018-05-27T12:38:45.780Z,61.50
2018-05-27T12:41:13.236Z,61.80
2018-05-27T12:43:40.676Z,62.00
2018-05-27T12:46:08.141Z,61.90
2018-05-27T12:48:35.576Z,62.00
2018-05-27T12:51:03.810Z,62.40
2018-05-27T12:53:31.264Z,62.30
2018-05-27T12:55:58.720Z,62.10
2018-05-27T12:58:26.159Z,62.00
2018-05-27T13:00:53.611Z,61.90
2018-05-27T13:03:21.068Z,61.90
2018-05-27T13:05:48.512Z,61.60
2018-05-27T13:08:15.960Z,61.70
2018-05-27T13:10:44.186Z,61.50
2018-05-27T13:13:11.640Z,61.40
2018-05-27T13:15:39.097Z,61.60
2018-05-27T13:18:06.539Z,61.30
2018-05-27T13:20:34.005Z,61.50
2018-05-27T13:23:01.449Z,61.60
2018-05-27T13:25:28.908Z,61.30
2018-05-27T13:27:56.427Z,61.20
2018-05-27T13:30:24.640Z,61.10
2018-05-27T13:32:52.113Z,61.10
2018-05-27T13:35:19.601Z,61.00
2018-05-27T13:37:47.068Z,61.00
2018-05-27T13:40:14.508Z,60.80
2018-05-27T13:42:41.974Z,60.40
2018-05-27T13:45:09.426Z,60.20
2018-05-27T13:47:36.879Z,60.20
2018-05-27T13:50:04.319Z,59.90
2018-05-27T13:52:31.816Z,59.70
2018-05-27T13:54:59.255Z,60.00
2018-05-27T13:57:26.713Z,59.60
2018-05-27T13:59:54.173Z,59.40
2018-05-27T14:02:21.639Z,59.10
2018-05-27T14:04:49.116Z,58.30
2018-05-27T14:07:16.540Z,57.60
2018-05-27T14:09:44.013Z,56.40
2018-05-27T14:12:11.468Z,54.30
2018-05-27T14:14:38.921Z,52.30
2018-05-27T14:17:06.394Z,50.70
2018-05-27T14:19:33.832Z,49.50
2018-05-27T14:22:01.344Z,48.70
2018-05-27T14:24:28.811Z,47.90
2018-05-27T14:26:56.294Z,47.10
2018-05-27T14:29:23.737Z,46.50
2018-05-27T14:31:51.214Z,46.00
2018-05-27T14:34:18.675Z,45.70
2018-05-27T14:36:46.129Z,45.30
2018-05-27T14:39:16.704Z,44.70
2018-05-27T14:41:44.934Z,44.30
2018-05-27T14:44:12.372Z,44.30
2018-05-27T14:46:39.834Z,44.10
2018-05-27T14:49:07.289Z,43.90
2018-05-27T14:51:36.728Z,43.70
2018-05-27T14:54:04.704Z,43.50
2018-05-27T14:56:33.885Z,43.10
2018-05-27T14:59:02.277Z,43.10
2018-05-27T15:01:29.735Z,43.10
2018-05-27T15:03:57.200Z,42.90
2018-05-27T15:06:24.655Z,42.60
2018-05-27T15:08:53.632Z,42.30
2018-05-27T15:11:22.436Z,42.20
2018-05-27T15:13:49.892Z,42.00
2018-05-27T15:16:18.926Z,41.90
2018-05-27T15:18:47.158Z,41.60
2018-05-27T15:21:14.630Z,41.60
2018-05-27T15:23:44.152Z,41.60
2018-05-27T15:26:12.380Z,41.40
2018-05-27T15:28:40.351Z,41.40
2018-05-27T15:31:09.024Z,41.30
2018-05-27T15:33:36.522Z,41.10
2018-05-27T15:36:03.972Z,41.00
2018-05-27T15:38:31.435Z,40.90
2018-05-27T15:40:58.889Z,40.80
2018-05-27T15:43:26.354Z,40.70
2018-05-27T15:45:53.804Z,40.50
2018-05-27T15:48:21.332Z,40.40
2018-05-27T15:50:48.743Z,40.40
2018-05-27T15:53:16.192Z,40.30
2018-05-27T15:55:43.648Z,40.20
2018-05-27T15:58:11.118Z,40.10
2018-05-27T16:00:38.559Z,40.00
2018-05-27T16:03:06.034Z,39.80
2018-05-27T16:05:33.491Z,39.80
2018-05-27T16:08:00.947Z,39.70
2018-05-27T16:10:28.404Z,39.70
2018-05-27T16:12:55.864Z,39.60
2018-05-27T16:15:23.308Z,39.60
2018-05-27T16:17:50.776Z,39.50
2018-05-27T16:20:18.223Z,39.50
2018-05-27T16:22:45.704Z,39.50
2018-05-27T16:25:13.936Z,39.50
2018-05-27T16:27:41.402Z,39.50
2018-05-27T16:30:08.852Z,39.40
2018-05-27T16:32:36.316Z,39.40
2018-05-27T16:35:03.772Z,39.40
2018-05-27T16:37:31.231Z,39.40
2018-05-27T16:39:58.712Z,39.30
2018-05-27T16:42:26.167Z,39.20
2018-05-27T16:44:53.627Z,39.10
2018-05-27T16:47:21.089Z,38.90
2018-05-27T16:49:48.548Z,38.80
2018-05-27T16:52:16.000Z,38.70
2018-05-27T16:54:43.463Z,38.60
2018-05-27T16:57:10.932Z,38.40
2018-05-27T16:59:39.162Z,38.10
2018-05-27T17:02:06.628Z,38.00
2018-05-27T17:04:34.088Z,37.90
2018-05-27T17:07:01.562Z,37.80
2018-05-27T17:09:29.023Z,37.60
2018-05-27T17:11:56.471Z,37.50
2018-05-27T17:14:23.952Z,37.40
2018-05-27T17:16:52.179Z,37.10
2018-05-27T17:19:19.644Z,37.10
2018-05-27T17:21:47.109Z,37.00
2018-05-27T17:24:14.619Z,36.90
2018-05-27T17:26:42.144Z,36.80
2018-05-27T17:29:09.605Z,36.70
2018-05-27T17:31:37.070Z,36.60
2018-05-27T17:34:05.312Z,36.50
2018-05-27T17:36:32.766Z,36.40
2018-05-27T17:39:00.240Z,36.30
2018-05-27T17:41:27.700Z,36.20
2018-05-27T17:43:55.172Z,36.20
2018-05-27T17:46:22.611Z,36.00
2018-05-27T17:48:50.090Z,36.00
2018-05-27T17:51:17.541Z,35.90
2018-05-27T17:53:44.996Z,35.80
2018-05-27T17:56:12.453Z,35.70
2018-05-27T17:58:39.923Z,35.60
2018-05-27T18:01:08.140Z,35.50
2018-05-27T18:03:35.617Z,35.40
2018-05-27T18:06:03.073Z,35.40
2018-05-27T18:08:30.532Z,35.30
2018-05-27T18:10:57.987Z,35.20
2018-05-27T18:13:25.435Z,35.20
2018-05-27T18:15:52.883Z,35.10
2018-05-27T18:18:20.340Z,35.00
2018-05-27T18:20:47.800Z,35.00
2018-05-27T18:23:15.308Z,34.90
2018-05-27T18:25:42.759Z,34.90
2018-05-27T18:28:10.221Z,34.80
2018-05-27T18:30:38.444Z,34.70
2018-05-27T18:33:05.904Z,34.70
2018-05-27T18:35:33.363Z,34.60
2018-05-27T18:38:00.828Z,34.60
2018-05-27T18:40:28.304Z,34.50
2018-05-27T18:42:55.787Z,34.40
2018-05-27T18:45:23.243Z,34.40
2018-05-27T18:47:50.709Z,34.40
2018-05-27T18:50:18.932Z,34.30
2018-05-27T18:52:46.392Z,34.20
2018-05-27T18:55:13.847Z,34.20
2018-05-27T18:57:41.296Z,34.10
2018-05-27T19:00:08.756Z,34.10
2018-05-27T19:02:36.212Z,34.00
2018-05-27T19:05:03.701Z,34.00
2018-05-27T19:07:31.168Z,33.90
2018-05-27T19:09:58.642Z,33.90
2018-05-27T19:12:26.096Z,33.80
2018-05-27T19:14:53.544Z,33.80
2018-05-27T19:17:21.011Z,33.70
2018-05-27T19:19:48.518Z,33.70
2018-05-27T19:22:18.541Z,33.50
2018-05-27T19:24:46.004Z,33.50
2018-05-27T19:27:13.453Z,33.50
2018-05-27T19:29:40.960Z,33.40
2018-05-27T19:32:08.423Z,33.30
2018-05-27T19:34:35.868Z,33.30
2018-05-27T19:37:03.325Z,33.20
2018-05-27T19:39:30.787Z,33.20
2018-05-27T19:41:58.239Z,33.10
2018-05-27T19:44:25.687Z,33.10
2018-05-27T19:46:53.557Z,33.00
2018-05-27T19:49:21.031Z,32.90
2018-05-27T19:51:49.975Z,32.80
2018-05-27T19:54:18.219Z,32.80
2018-05-27T19:56:46.450Z,32.70
2018-05-27T19:59:13.924Z,32.70
2018-05-27T20:01:41.380Z,32.70
2018-05-27T20:04:08.836Z,32.60
2018-05-27T20:06:36.285Z,32.60
2018-05-27T20:09:03.803Z,32.50
2018-05-27T20:11:31.247Z,32.50
2018-05-27T20:13:58.714Z,32.50
2018-05-27T20:16:26.160Z,32.40
2018-05-27T20:18:54.384Z,32.30
2018-05-27T20:21:21.841Z,32.30
2018-05-27T20:23:49.301Z,32.30
2018-05-27T20:26:17.516Z,32.20
2018-05-27T20:28:45.746Z,32.20
2018-05-27T20:31:13.976Z,32.20
2018-05-27T20:33:42.191Z,32.10
2018-05-27T20:36:09.652Z,32.10
2018-05-27T20:38:37.100Z,32.10
2018-05-27T20:41:04.569Z,32.00
2018-05-27T20:43:32.031Z,32.00
2018-05-27T20:45:59.493Z,32.00
2018-05-27T20:48:26.955Z,31.90
2018-05-27T20:50:54.412Z,31.90
2018-05-27T20:53:21.871Z,31.80
2018-05-27T20:55:49.424Z,31.80
2018-05-27T20:58:17.632Z,31.70
2018-05-27T21:00:45.092Z,31.70
2018-05-27T21:03:13.320Z,31.60
2018-05-27T21:05:40.784Z,31.60
2018-05-27T21:08:08.231Z,31.60
2018-05-27T21:10:35.715Z,31.50
2018-05-27T21:13:03.215Z,31.50
2018-05-27T21:15:30.638Z,31.50
2018-05-27T21:17:58.099Z,31.50
2018-05-27T21:20:27.416Z,31.30
2018-05-27T21:22:54.876Z,31.30
2018-05-27T21:25:23.328Z,31.20
2018-05-27T21:27:54.335Z,31.20
2018-05-27T21:30:25.868Z,31.20
2018-05-27T21:32:56.711Z,31.20
2018-05-27T21:35:24.222Z,31.20
2018-05-27T21:37:51.683Z,31.10
2018-05-27T21:40:19.136Z,31.10
2018-05-27T21:42:46.580Z,31.10
2018-05-27T21:45:14.040Z,31.00
2018-05-27T21:47:41.493Z,31.00
2018-05-27T21:50:09.044Z,30.30
2018-05-27T21:52:36.512Z,29.70
2018-05-27T21:55:03.979Z,29.30
2018-05-27T21:57:32.578Z,29.00
2018-05-27T22:00:00.020Z,28.60
2018-05-27T22:02:28.247Z,28.40
2018-05-27T22:04:56.471Z,28.20
2018-05-27T22:07:24.701Z,28.10
2018-05-27T22:09:52.156Z,28.00
2018-05-27T22:12:20.387Z,27.80
2018-05-27T22:14:48.617Z,27.70
2018-05-27T22:17:17.619Z,27.50
2018-05-27T22:19:45.430Z,27.50
2018-05-27T22:22:12.879Z,27.50
2018-05-27T22:24:40.336Z,27.50
2018-05-27T22:27:08.780Z,27.60
2018-05-27T22:29:37.149Z,27.60
2018-05-27T22:32:05.422Z,27.50
2018-05-27T22:34:32.918Z,27.40
2018-05-27T22:37:03.677Z,27.30
2018-05-27T22:39:31.129Z,27.20
2018-05-27T22:41:58.604Z,27.10
2018-05-27T22:44:26.058Z,26.70
2018-05-27T22:46:53.522Z,26.70
2018-05-27T22:49:21.863Z,26.90
2018-05-27T22:51:49.440Z,26.90
2018-05-27T22:54:16.892Z,26.90
2018-05-27T22:56:44.375Z,27.00
2018-05-27T22:59:13.700Z,26.90
2018-05-27T23:01:41.928Z,26.80
2018-05-27T23:04:09.375Z,26.80
2018-05-27T23:06:37.603Z,26.80
2018-05-27T23:09:05.065Z,26.80
2018-05-27T23:11:32.533Z,26.80
2018-05-27T23:14:00.000Z,26.80
2018-05-27T23:16:27.456Z,26.70
2018-05-27T23:18:54.930Z,26.70
2018-05-27T23:21:23.169Z,26.50
2018-05-27T23:23:50.624Z,26.50
2018-05-27T23:26:18.860Z,26.20
2018-05-27T23:28:46.312Z,26.20
2018-05-27T23:31:13.793Z,26.20
2018-05-27T23:33:41.288Z,26.20
2018-05-27T23:36:08.781Z,26.10
2018-05-27T23:38:36.245Z,26.20
2018-05-27T23:41:03.700Z,26.20
2018-05-27T23:43:31.174Z,26.30
2018-05-27T23:45:58.629Z,26.20
2018-05-27T23:48:26.088Z,26.20
2018-05-27T23:50:53.539Z,26.30
2018-05-27T23:53:21.012Z,26.30
2018-05-27T23:55:48.475Z,26.30
2018-05-27T23:58:15.948Z,26.20
